Pacific Fantasy — A8MV6 — position and weather

sailwx.info

Track history (hours):
 
Tides and Currents Weather Stations Pressure Air Temp Water Temp Dewpoint Dewpoint Depression Visibility Wind Speed Wind Dir Waves Ship Positions

Pacific Fantasy

Last reported at 2014-Aug-29 11:06 UTC. Time now 2014-Oct-21 20:00 UTC.
Position N 29°21' W 094°45'.
Warning: this ship's position is 53 days out of date.

Length 180 m; draft 6.5 m.

Type: Cargo ship. MMSI: 636013744.

Date/timePositionNaut miles runAvg speedWind from/ knotsBaromVisibWave heightAir tempDewpointWater temp
2014-Aug-29 11:06N 29°21' W 094°45'4 7.8
2014-Aug-29 10:33N 29°23' W 094°49'9 9.2
2014-Aug-29 09:33N 29°31' W 094°53'9 9.5
2014-Aug-29 08:33N 29°40' W 094°58'7 7.2
2014-Aug-29 07:33N 29°45' W 095°04'3 2.6
2014-Aug-29 06:33N 29°44' W 095°07'0 0.0
2014-Aug-29 05:33N 29°44' W 095°07'0 0.0
2014-Aug-29 04:33N 29°44' W 095°07'0 0.0
2014-Aug-29 03:33N 29°44' W 095°07'0 0.0
2014-Aug-29 02:33N 29°44' W 095°07'0 0.0
2014-Aug-29 01:33N 29°44' W 095°07'0 0.0
2014-Aug-29 00:33N 29°44' W 095°07'0 0.0
2014-Aug-28 23:33N 29°44' W 095°07'0 0.0
2014-Aug-28 22:33N 29°44' W 095°07'0 0.0
2014-Aug-28 21:33N 29°44' W 095°07'0 0.0
2014-Aug-28 20:33N 29°44' W 095°07'0 0.0
2014-Aug-28 19:33N 29°44' W 095°07'0 0.0
2014-Aug-28 18:32N 29°44' W 095°07'0 0.0
2014-Aug-28 17:32N 29°44' W 095°07'0 0.0
2014-Aug-28 16:32N 29°44' W 095°07'0 0.0
2014-Aug-28 15:32N 29°44' W 095°07'0 0.0
2014-Aug-28 14:32N 29°44' W 095°07'0 0.0
2014-Aug-28 13:32N 29°44' W 095°07'0 0.0
2014-Aug-28 12:32N 29°44' W 095°07'0 0.0
2014-Aug-28 11:32N 29°44' W 095°07'0 0.0
2014-Aug-28 10:32N 29°44' W 095°07'0 0.0
2014-Aug-28 09:32N 29°44' W 095°07'0 0.0
2014-Aug-28 08:32N 29°44' W 095°07'0 0.0
2014-Aug-28 07:32N 29°44' W 095°07'0 0.0
2014-Aug-28 06:29N 29°44' W 095°07'0 0.0
2014-Aug-28 05:32N 29°44' W 095°07'0 0.0
2014-Aug-28 04:32N 29°44' W 095°07'0 0.0
2014-Aug-28 03:32N 29°44' W 095°07'0 0.0
2014-Aug-28 02:29N 29°44' W 095°07'0 0.0
2014-Aug-28 01:29N 29°44' W 095°07'0 0.0
2014-Aug-28 00:32N 29°44' W 095°07'0 0.0
2014-Aug-27 23:32N 29°44' W 095°07'0 0.0
2014-Aug-27 22:29N 29°44' W 095°07'0 0.0
2014-Aug-27 21:32N 29°44' W 095°07'0 0.0
2014-Aug-27 20:32N 29°44' W 095°07'0 0.0
2014-Aug-27 19:32N 29°44' W 095°07'0 0.0
2014-Aug-27 18:32N 29°44' W 095°07'0 0.0
2014-Aug-27 17:32N 29°44' W 095°07'0 0.0
2014-Aug-27 16:32N 29°44' W 095°07'0 0.0
2014-Aug-27 15:32N 29°44' W 095°07'0 0.0
2014-Aug-27 14:32N 29°44' W 095°07'0 0.0
2014-Aug-27 13:32N 29°44' W 095°07'0 0.0
2014-Aug-27 12:32N 29°44' W 095°07'0 0.0
2014-Aug-27 11:29N 29°44' W 095°07'0 0.0
2014-Aug-27 10:32N 29°44' W 095°07'0 0.0
2014-Aug-27 09:32N 29°44' W 095°07'0 0.0
2014-Aug-27 08:31N 29°44' W 095°07'0 0.0
2014-Aug-27 07:28N 29°44' W 095°07'0 0.0
2014-Aug-27 06:31N 29°44' W 095°07'0 0.0
2014-Aug-27 05:31N 29°44' W 095°07'0 0.0
2014-Aug-27 04:28N 29°44' W 095°07'0 0.0
2014-Aug-27 03:31N 29°44' W 095°07'0 0.0
2014-Aug-27 02:31N 29°44' W 095°07'0 0.0
2014-Aug-27 01:31N 29°44' W 095°07'0 0.0
2014-Aug-27 00:31N 29°44' W 095°07'0 0.0
2014-Aug-26 23:31N 29°44' W 095°07'0 0.0
2014-Aug-26 22:31N 29°44' W 095°07'0 0.0
2014-Aug-26 21:31N 29°44' W 095°07'0 0.4
2014-Aug-26 20:33N 29°44' W 095°07'6 5.6
2014-Aug-26 19:34N 29°42' W 095°01'10 9.9
2014-Aug-26 18:33N 29°34' W 094°55'1110.9
2014-Aug-26 17:33N 29°24' W 094°49'  
2014-Aug-24 07:32N 29°21' W 094°47'1111.1
2014-Aug-24 06:33N 29°31' W 094°53'1111.4
2014-Aug-24 05:33N 29°41' W 094°59'7 7.4
2014-Aug-24 04:33N 29°45' W 095°06'6 5.8
2014-Aug-24 03:33N 29°44' W 095°12'4 3.8
2014-Aug-24 02:33N 29°44' W 095°17'1 0.6
2014-Aug-24 01:32N 29°44' W 095°17'0 0.0
2014-Aug-24 00:32N 29°44' W 095°17'0 0.0
2014-Aug-23 23:32N 29°44' W 095°17'0 0.0
2014-Aug-23 22:32N 29°44' W 095°17'0 0.0
2014-Aug-23 21:32N 29°44' W 095°17'0 0.0
2014-Aug-23 20:32N 29°44' W 095°17'0 0.0
2014-Aug-23 19:32N 29°44' W 095°17'0 0.0
2014-Aug-23 03:32N 29°44' W 095°17'0 0.0
2014-Aug-23 02:32N 29°44' W 095°17'0 0.0
2014-Aug-23 01:32N 29°44' W 095°17'0 0.0
2014-Aug-23 00:32N 29°44' W 095°17'0 0.0
2014-Aug-22 23:32N 29°44' W 095°17'0 0.0
2014-Aug-22 22:32N 29°44' W 095°17'0 0.0
2014-Aug-22 21:32N 29°44' W 095°17'0 0.0
2014-Aug-22 20:32N 29°44' W 095°17'0 0.0
2014-Aug-22 19:32N 29°44' W 095°17'0 0.0
2014-Aug-22 18:32N 29°44' W 095°17'0 0.0
2014-Aug-22 17:31N 29°44' W 095°17'0 0.0
2014-Aug-22 16:31N 29°44' W 095°17'0 0.0
2014-Aug-22 15:31N 29°44' W 095°17'0 0.0
2014-Aug-22 14:31N 29°44' W 095°17'0 0.0
2014-Aug-22 13:31N 29°44' W 095°17'0 0.0
2014-Aug-22 12:31N 29°44' W 095°17'0 0.0
2014-Aug-22 11:31N 29°44' W 095°17'0 0.0
2014-Aug-22 10:31N 29°44' W 095°17'0 0.0
2014-Aug-22 09:31N 29°44' W 095°17'0 0.0
2014-Aug-22 08:31N 29°44' W 095°17'0 0.0
2014-Aug-22 07:31N 29°44' W 095°17'0 0.0
2014-Aug-22 06:31N 29°44' W 095°17'0 0.0
2014-Aug-22 05:31N 29°44' W 095°17'0 0.0
2014-Aug-22 04:31N 29°44' W 095°17'0 0.0
2014-Aug-22 03:31N 29°44' W 095°17'0 0.0
2014-Aug-22 02:31N 29°44' W 095°17'0 0.0
2014-Aug-22 01:31N 29°44' W 095°17'0 0.0
2014-Aug-22 00:31N 29°44' W 095°17'0 0.0
2014-Aug-21 23:31N 29°44' W 095°17'0 0.0
2014-Aug-21 22:31N 29°44' W 095°17'0 0.0
2014-Aug-21 21:31N 29°44' W 095°17'0 0.0
2014-Aug-21 20:31N 29°44' W 095°17'0 0.0
2014-Aug-21 19:31N 29°44' W 095°17'0 0.0
2014-Aug-21 18:28N 29°44' W 095°17'0 0.0
2014-Aug-21 17:31N 29°44' W 095°17'2 2.0
2014-Aug-21 16:33N 29°43' W 095°15'5 5.2
2014-Aug-21 15:34N 29°44' W 095°09'6 6.0
2014-Aug-21 14:33N 29°44' W 095°02'9 9.4
2014-Aug-21 13:33N 29°36' W 094°57'1111.4
2014-Aug-21 12:33N 29°26' W 094°50'  
Track history (hours):
 
Tides and Currents Weather Stations Pressure Air Temp Water Temp Dewpoint Dewpoint Depression Visibility Wind Speed Wind Dir Waves Ship Positions

Pacific Fantasy

Last reported at 2014-Aug-29 11:06 UTC. Time now 2014-Oct-21 20:00 UTC.
Position N 29°21' W 094°45'.
Warning: this ship's position is 53 days out of date.

Length 180 m; draft 6.5 m.

Type: Cargo ship. MMSI: 636013744.

Date/timePositionNaut miles runAvg speedWind from/ knotsBaromVisibWave heightAir tempDewpointWater temp
2014-Aug-29 11:06N 29°21' W 094°45'4 7.8
2014-Aug-29 10:33N 29°23' W 094°49'9 9.2
2014-Aug-29 09:33N 29°31' W 094°53'9 9.5
2014-Aug-29 08:33N 29°40' W 094°58'7 7.2
2014-Aug-29 07:33N 29°45' W 095°04'3 2.6
2014-Aug-29 06:33N 29°44' W 095°07'0 0.0
2014-Aug-29 05:33N 29°44' W 095°07'0 0.0
2014-Aug-29 04:33N 29°44' W 095°07'0 0.0
2014-Aug-29 03:33N 29°44' W 095°07'0 0.0
2014-Aug-29 02:33N 29°44' W 095°07'0 0.0
2014-Aug-29 01:33N 29°44' W 095°07'0 0.0
2014-Aug-29 00:33N 29°44' W 095°07'0 0.0
2014-Aug-28 23:33N 29°44' W 095°07'0 0.0
2014-Aug-28 22:33N 29°44' W 095°07'0 0.0
2014-Aug-28 21:33N 29°44' W 095°07'0 0.0
2014-Aug-28 20:33N 29°44' W 095°07'0 0.0
2014-Aug-28 19:33N 29°44' W 095°07'0 0.0
2014-Aug-28 18:32N 29°44' W 095°07'0 0.0
2014-Aug-28 17:32N 29°44' W 095°07'0 0.0
2014-Aug-28 16:32N 29°44' W 095°07'0 0.0
2014-Aug-28 15:32N 29°44' W 095°07'0 0.0
2014-Aug-28 14:32N 29°44' W 095°07'0 0.0
2014-Aug-28 13:32N 29°44' W 095°07'0 0.0
2014-Aug-28 12:32N 29°44' W 095°07'0 0.0
2014-Aug-28 11:32N 29°44' W 095°07'0 0.0
2014-Aug-28 10:32N 29°44' W 095°07'0 0.0
2014-Aug-28 09:32N 29°44' W 095°07'0 0.0
2014-Aug-28 08:32N 29°44' W 095°07'0 0.0
2014-Aug-28 07:32N 29°44' W 095°07'0 0.0
2014-Aug-28 06:29N 29°44' W 095°07'0 0.0
2014-Aug-28 05:32N 29°44' W 095°07'0 0.0
2014-Aug-28 04:32N 29°44' W 095°07'0 0.0
2014-Aug-28 03:32N 29°44' W 095°07'0 0.0
2014-Aug-28 02:29N 29°44' W 095°07'0 0.0
2014-Aug-28 01:29N 29°44' W 095°07'0 0.0
2014-Aug-28 00:32N 29°44' W 095°07'0 0.0
2014-Aug-27 23:32N 29°44' W 095°07'0 0.0
2014-Aug-27 22:29N 29°44' W 095°07'0 0.0
2014-Aug-27 21:32N 29°44' W 095°07'0 0.0
2014-Aug-27 20:32N 29°44' W 095°07'0 0.0
2014-Aug-27 19:32N 29°44' W 095°07'0 0.0
2014-Aug-27 18:32N 29°44' W 095°07'0 0.0
2014-Aug-27 17:32N 29°44' W 095°07'0 0.0
2014-Aug-27 16:32N 29°44' W 095°07'0 0.0
2014-Aug-27 15:32N 29°44' W 095°07'0 0.0
2014-Aug-27 14:32N 29°44' W 095°07'0 0.0
2014-Aug-27 13:32N 29°44' W 095°07'0 0.0
2014-Aug-27 12:32N 29°44' W 095°07'0 0.0
2014-Aug-27 11:29N 29°44' W 095°07'0 0.0
2014-Aug-27 10:32N 29°44' W 095°07'0 0.0
2014-Aug-27 09:32N 29°44' W 095°07'0 0.0
2014-Aug-27 08:31N 29°44' W 095°07'0 0.0
2014-Aug-27 07:28N 29°44' W 095°07'0 0.0
2014-Aug-27 06:31N 29°44' W 095°07'0 0.0
2014-Aug-27 05:31N 29°44' W 095°07'0 0.0
2014-Aug-27 04:28N 29°44' W 095°07'0 0.0
2014-Aug-27 03:31N 29°44' W 095°07'0 0.0
2014-Aug-27 02:31N 29°44' W 095°07'0 0.0
2014-Aug-27 01:31N 29°44' W 095°07'0 0.0
2014-Aug-27 00:31N 29°44' W 095°07'0 0.0
2014-Aug-26 23:31N 29°44' W 095°07'0 0.0
2014-Aug-26 22:31N 29°44' W 095°07'0 0.0
2014-Aug-26 21:31N 29°44' W 095°07'0 0.4
2014-Aug-26 20:33N 29°44' W 095°07'6 5.6
2014-Aug-26 19:34N 29°42' W 095°01'10 9.9
2014-Aug-26 18:33N 29°34' W 094°55'1110.9
2014-Aug-26 17:33N 29°24' W 094°49'  
2014-Aug-24 07:32N 29°21' W 094°47'1111.1
2014-Aug-24 06:33N 29°31' W 094°53'1111.4
2014-Aug-24 05:33N 29°41' W 094°59'7 7.4
2014-Aug-24 04:33N 29°45' W 095°06'6 5.8
2014-Aug-24 03:33N 29°44' W 095°12'4 3.8
2014-Aug-24 02:33N 29°44' W 095°17'1 0.6
2014-Aug-24 01:32N 29°44' W 095°17'0 0.0
2014-Aug-24 00:32N 29°44' W 095°17'0 0.0
2014-Aug-23 23:32N 29°44' W 095°17'0 0.0
2014-Aug-23 22:32N 29°44' W 095°17'0 0.0
2014-Aug-23 21:32N 29°44' W 095°17'0 0.0
2014-Aug-23 20:32N 29°44' W 095°17'0 0.0
2014-Aug-23 19:32N 29°44' W 095°17'0 0.0
2014-Aug-23 03:32N 29°44' W 095°17'0 0.0
2014-Aug-23 02:32N 29°44' W 095°17'0 0.0
2014-Aug-23 01:32N 29°44' W 095°17'0 0.0
2014-Aug-23 00:32N 29°44' W 095°17'0 0.0
2014-Aug-22 23:32N 29°44' W 095°17'0 0.0
2014-Aug-22 22:32N 29°44' W 095°17'0 0.0
2014-Aug-22 21:32N 29°44' W 095°17'0 0.0
2014-Aug-22 20:32N 29°44' W 095°17'0 0.0
2014-Aug-22 19:32N 29°44' W 095°17'0 0.0
2014-Aug-22 18:32N 29°44' W 095°17'0 0.0
2014-Aug-22 17:31N 29°44' W 095°17'0 0.0
2014-Aug-22 16:31N 29°44' W 095°17'0 0.0
2014-Aug-22 15:31N 29°44' W 095°17'0 0.0
2014-Aug-22 14:31N 29°44' W 095°17'0 0.0
2014-Aug-22 13:31N 29°44' W 095°17'0 0.0
2014-Aug-22 12:31N 29°44' W 095°17'0 0.0
2014-Aug-22 11:31N 29°44' W 095°17'0 0.0
2014-Aug-22 10:31N 29°44' W 095°17'0 0.0
2014-Aug-22 09:31N 29°44' W 095°17'0 0.0
2014-Aug-22 08:31N 29°44' W 095°17'0 0.0
2014-Aug-22 07:31N 29°44' W 095°17'0 0.0
2014-Aug-22 06:31N 29°44' W 095°17'0 0.0
2014-Aug-22 05:31N 29°44' W 095°17'0 0.0
2014-Aug-22 04:31N 29°44' W 095°17'0 0.0
2014-Aug-22 03:31N 29°44' W 095°17'0 0.0
2014-Aug-22 02:31N 29°44' W 095°17'0 0.0
2014-Aug-22 01:31N 29°44' W 095°17'0 0.0
2014-Aug-22 00:31N 29°44' W 095°17'0 0.0
2014-Aug-21 23:31N 29°44' W 095°17'0 0.0
2014-Aug-21 22:31N 29°44' W 095°17'0 0.0
2014-Aug-21 21:31N 29°44' W 095°17'0 0.0
2014-Aug-21 20:31N 29°44' W 095°17'0 0.0
2014-Aug-21 19:31N 29°44' W 095°17'0 0.0
2014-Aug-21 18:28N 29°44' W 095°17'0 0.0
2014-Aug-21 17:31N 29°44' W 095°17'2 2.0
2014-Aug-21 16:33N 29°43' W 095°15'5 5.2
2014-Aug-21 15:34N 29°44' W 095°09'6 6.0
2014-Aug-21 14:33N 29°44' W 095°02'9 9.4
2014-Aug-21 13:33N 29°36' W 094°57'1111.4
2014-Aug-21 12:33N 29°26' W 094°50'  

Dump ship's entire track history